sensor_id;sensor_type;location;lat;lon;timestamp;P1;durP1;ratioP1;P2;durP2;ratioP2
68792;SDS011;55778;54.346;10.210;2023-05-10T00:00:54;4.47;;;2.60;;
68792;SDS011;55778;54.346;10.210;2023-05-10T00:03:20;4.88;;;2.78;;
68792;SDS011;55778;54.346;10.210;2023-05-10T00:05:45;4.97;;;2.72;;
68792;SDS011;55778;54.346;10.210;2023-05-10T00:08:11;5.10;;;2.80;;
68792;SDS011;55778;54.346;10.210;2023-05-10T00:10:36;4.57;;;2.90;;
68792;SDS011;55778;54.346;10.210;2023-05-10T00:13:02;3.90;;;2.78;;
68792;SDS011;55778;54.346;10.210;2023-05-10T00:15:28;5.53;;;2.35;;
68792;SDS011;55778;54.346;10.210;2023-05-10T00:17:55;4.45;;;2.50;;
68792;SDS011;55778;54.346;10.210;2023-05-10T00:20:21;5.28;;;2.83;;
68792;SDS011;55778;54.346;10.210;2023-05-10T00:22:46;10.82;;;3.00;;
68792;SDS011;55778;54.346;10.210;2023-05-10T00:25:11;4.72;;;2.95;;
68792;SDS011;55778;54.346;10.210;2023-05-10T00:27:37;6.03;;;2.95;;
68792;SDS011;55778;54.346;10.210;2023-05-10T00:30:02;4.60;;;2.90;;
68792;SDS011;55778;54.346;10.210;2023-05-10T00:32:28;4.97;;;2.85;;
68792;SDS011;55778;54.346;10.210;2023-05-10T00:34:53;5.65;;;2.75;;
68792;SDS011;55778;54.346;10.210;2023-05-10T00:37:18;7.10;;;2.88;;
68792;SDS011;55778;54.346;10.210;2023-05-10T00:39:44;5.82;;;2.95;;
68792;SDS011;55778;54.346;10.210;2023-05-10T00:42:09;8.15;;;2.90;;
68792;SDS011;55778;54.346;10.210;2023-05-10T00:44:35;7.50;;;2.78;;
68792;SDS011;55778;54.346;10.210;2023-05-10T00:47:00;6.68;;;3.05;;
68792;SDS011;55778;54.346;10.210;2023-05-10T00:49:25;4.53;;;2.67;;
68792;SDS011;55778;54.346;10.210;2023-05-10T00:51:51;4.78;;;3.17;;
68792;SDS011;55778;54.346;10.210;2023-05-10T00:54:16;3.70;;;2.80;;
68792;SDS011;55778;54.346;10.210;2023-05-10T00:56:42;5.53;;;3.05;;
68792;SDS011;55778;54.346;10.210;2023-05-10T00:59:13;6.03;;;3.08;;
68792;SDS011;55778;54.346;10.210;2023-05-10T01:01:40;4.55;;;2.75;;
68792;SDS011;55778;54.346;10.210;2023-05-10T01:04:05;4.28;;;2.85;;
68792;SDS011;55778;54.346;10.210;2023-05-10T01:06:31;3.80;;;2.90;;
68792;SDS011;55778;54.346;10.210;2023-05-10T01:08:57;4.32;;;2.75;;
68792;SDS011;55778;54.346;10.210;2023-05-10T01:11:22;4.72;;;2.75;;
68792;SDS011;55778;54.346;10.210;2023-05-10T01:13:50;5.18;;;3.08;;
68792;SDS011;55778;54.346;10.210;2023-05-10T01:16:23;4.47;;;2.80;;
68792;SDS011;55778;54.346;10.210;2023-05-10T01:18:49;6.45;;;3.15;;
68792;SDS011;55778;54.346;10.210;2023-05-10T01:21:32;6.00;;;3.20;;
68792;SDS011;55778;54.346;10.210;2023-05-10T01:24:09;9.05;;;3.20;;
68792;SDS011;55778;54.346;10.210;2023-05-10T01:35:37;5.55;;;2.88;;
68792;SDS011;55778;54.346;10.210;2023-05-10T01:43:29;6.18;;;3.22;;
68792;SDS011;55778;54.346;10.210;2023-05-10T01:46:08;5.75;;;3.22;;
68792;SDS011;55778;54.346;10.210;2023-05-10T01:48:38;5.03;;;3.22;;
68792;SDS011;55778;54.346;10.210;2023-05-10T01:51:11;5.35;;;3.13;;
68792;SDS011;55778;54.346;10.210;2023-05-10T01:53:40;5.82;;;3.33;;
68792;SDS011;55778;54.346;10.210;2023-05-10T01:56:08;4.35;;;2.95;;
68792;SDS011;55778;54.346;10.210;2023-05-10T01:58:35;8.10;;;3.25;;
68792;SDS011;55778;54.346;10.210;2023-05-10T02:01:05;6.72;;;3.10;;
68792;SDS011;55778;54.346;10.210;2023-05-10T02:03:32;5.10;;;3.20;;
68792;SDS011;55778;54.346;10.210;2023-05-10T02:06:00;5.43;;;3.30;;
68792;SDS011;55778;54.346;10.210;2023-05-10T02:08:27;5.07;;;2.92;;
68792;SDS011;55778;54.346;10.210;2023-05-10T02:10:54;3.72;;;2.60;;
68792;SDS011;55778;54.346;10.210;2023-05-10T02:13:21;5.55;;;3.28;;
68792;SDS011;55778;54.346;10.210;2023-05-10T02:15:49;6.50;;;3.92;;
68792;SDS011;55778;54.346;10.210;2023-05-10T02:18:16;4.90;;;3.20;;
68792;SDS011;55778;54.346;10.210;2023-05-10T02:20:43;5.57;;;3.30;;
68792;SDS011;55778;54.346;10.210;2023-05-10T02:23:13;6.05;;;3.42;;
68792;SDS011;55778;54.346;10.210;2023-05-10T02:25:40;3.63;;;2.97;;
68792;SDS011;55778;54.346;10.210;2023-05-10T02:28:08;4.60;;;3.25;;
68792;SDS011;55778;54.346;10.210;2023-05-10T02:30:35;5.35;;;3.30;;
68792;SDS011;55778;54.346;10.210;2023-05-10T02:33:01;5.90;;;3.38;;
68792;SDS011;55778;54.346;10.210;2023-05-10T02:35:29;6.97;;;4.53;;
68792;SDS011;55778;54.346;10.210;2023-05-10T02:37:56;4.50;;;2.92;;
68792;SDS011;55778;54.346;10.210;2023-05-10T02:40:23;4.82;;;3.22;;
68792;SDS011;55778;54.346;10.210;2023-05-10T02:42:50;6.18;;;3.20;;
68792;SDS011;55778;54.346;10.210;2023-05-10T02:45:19;6.82;;;3.38;;
68792;SDS011;55778;54.346;10.210;2023-05-10T02:47:47;5.55;;;3.10;;
68792;SDS011;55778;54.346;10.210;2023-05-10T02:50:13;6.35;;;3.20;;
68792;SDS011;55778;54.346;10.210;2023-05-10T02:52:50;8.20;;;3.40;;
68792;SDS011;55778;54.346;10.210;2023-05-10T02:55:19;5.28;;;3.22;;
68792;SDS011;55778;54.346;10.210;2023-05-10T02:57:55;5.85;;;3.60;;
68792;SDS011;55778;54.346;10.210;2023-05-10T03:00:24;9.55;;;3.92;;
68792;SDS011;55778;54.346;10.210;2023-05-10T03:02:50;4.95;;;3.55;;
68792;SDS011;55778;54.346;10.210;2023-05-10T03:05:15;6.25;;;3.50;;
68792;SDS011;55778;54.346;10.210;2023-05-10T03:07:40;5.40;;;3.67;;
68792;SDS011;55778;54.346;10.210;2023-05-10T03:10:06;4.75;;;3.10;;
68792;SDS011;55778;54.346;10.210;2023-05-10T03:17:52;6.15;;;3.30;;
68792;SDS011;55778;54.346;10.210;2023-05-10T03:20:26;6.15;;;3.33;;
68792;SDS011;55778;54.346;10.210;2023-05-10T03:23:00;7.50;;;3.42;;
68792;SDS011;55778;54.346;10.210;2023-05-10T03:25:32;7.35;;;3.72;;
68792;SDS011;55778;54.346;10.210;2023-05-10T03:27:58;6.07;;;3.70;;
68792;SDS011;55778;54.346;10.210;2023-05-10T03:30:26;7.68;;;3.60;;
68792;SDS011;55778;54.346;10.210;2023-05-10T03:32:52;5.88;;;3.35;;
68792;SDS011;55778;54.346;10.210;2023-05-10T03:35:18;6.50;;;3.60;;
68792;SDS011;55778;54.346;10.210;2023-05-10T03:37:43;5.30;;;3.45;;
68792;SDS011;55778;54.346;10.210;2023-05-10T03:40:09;6.07;;;3.40;;
68792;SDS011;55778;54.346;10.210;2023-05-10T03:42:35;5.88;;;3.55;;
68792;SDS011;55778;54.346;10.210;2023-05-10T03:45:00;5.32;;;3.40;;
68792;SDS011;55778;54.346;10.210;2023-05-10T03:47:25;8.07;;;3.70;;
68792;SDS011;55778;54.346;10.210;2023-05-10T03:49:51;7.05;;;3.40;;
68792;SDS011;55778;54.346;10.210;2023-05-10T03:52:16;7.60;;;4.03;;
68792;SDS011;55778;54.346;10.210;2023-05-10T03:54:43;4.57;;;3.45;;
68792;SDS011;55778;54.346;10.210;2023-05-10T03:57:08;4.70;;;3.35;;
68792;SDS011;55778;54.346;10.210;2023-05-10T03:59:34;7.32;;;3.70;;
68792;SDS011;55778;54.346;10.210;2023-05-10T04:02:00;5.30;;;3.58;;
68792;SDS011;55778;54.346;10.210;2023-05-10T04:04:25;8.05;;;3.40;;
68792;SDS011;55778;54.346;10.210;2023-05-10T04:06:50;5.15;;;3.40;;
68792;SDS011;55778;54.346;10.210;2023-05-10T04:09:16;5.22;;;3.47;;
68792;SDS011;55778;54.346;10.210;2023-05-10T04:11:42;4.85;;;3.47;;
68792;SDS011;55778;54.346;10.210;2023-05-10T04:14:07;5.75;;;3.70;;
68792;SDS011;55778;54.346;10.210;2023-05-10T04:16:33;5.53;;;3.58;;
68792;SDS011;55778;54.346;10.210;2023-05-10T04:18:58;7.68;;;3.45;;
68792;SDS011;55778;54.346;10.210;2023-05-10T04:21:24;5.15;;;3.58;;
68792;SDS011;55778;54.346;10.210;2023-05-10T04:23:50;7.90;;;3.90;;
68792;SDS011;55778;54.346;10.210;2023-05-10T04:26:15;15.80;;;4.47;;
68792;SDS011;55778;54.346;10.210;2023-05-10T04:28:41;11.05;;;4.47;;
68792;SDS011;55778;54.346;10.210;2023-05-10T04:31:07;13.55;;;4.00;;
68792;SDS011;55778;54.346;10.210;2023-05-10T04:33:34;6.95;;;3.65;;
68792;SDS011;55778;54.346;10.210;2023-05-10T04:36:00;6.10;;;3.60;;
68792;SDS011;55778;54.346;10.210;2023-05-10T04:38:27;12.25;;;3.95;;
68792;SDS011;55778;54.346;10.210;2023-05-10T04:40:53;6.38;;;3.70;;
68792;SDS011;55778;54.346;10.210;2023-05-10T04:43:18;8.52;;;3.80;;
68792;SDS011;55778;54.346;10.210;2023-05-10T04:45:44;9.63;;;4.32;;
68792;SDS011;55778;54.346;10.210;2023-05-10T04:48:09;6.78;;;3.97;;
68792;SDS011;55778;54.346;10.210;2023-05-10T04:50:35;9.05;;;3.78;;
68792;SDS011;55778;54.346;10.210;2023-05-10T04:53:00;7.25;;;3.83;;
68792;SDS011;55778;54.346;10.210;2023-05-10T04:55:27;9.45;;;4.00;;
68792;SDS011;55778;54.346;10.210;2023-05-10T04:57:52;9.25;;;3.75;;
68792;SDS011;55778;54.346;10.210;2023-05-10T05:00:20;7.93;;;3.88;;
68792;SDS011;55778;54.346;10.210;2023-05-10T05:02:45;12.02;;;3.95;;
68792;SDS011;55778;54.346;10.210;2023-05-10T05:05:11;6.55;;;3.97;;
68792;SDS011;55778;54.346;10.210;2023-05-10T05:07:37;8.00;;;3.95;;
68792;SDS011;55778;54.346;10.210;2023-05-10T05:10:04;8.73;;;4.10;;
68792;SDS011;55778;54.346;10.210;2023-05-10T05:12:30;10.48;;;4.10;;
68792;SDS011;55778;54.346;10.210;2023-05-10T05:14:56;6.63;;;4.20;;
68792;SDS011;55778;54.346;10.210;2023-05-10T05:17:21;9.57;;;3.72;;
68792;SDS011;55778;54.346;10.210;2023-05-10T05:19:46;5.82;;;3.55;;
68792;SDS011;55778;54.346;10.210;2023-05-10T05:22:12;7.97;;;3.95;;
68792;SDS011;55778;54.346;10.210;2023-05-10T05:24:37;6.47;;;3.90;;
68792;SDS011;55778;54.346;10.210;2023-05-10T05:27:05;6.97;;;3.70;;
68792;SDS011;55778;54.346;10.210;2023-05-10T05:29:31;7.57;;;3.72;;
68792;SDS011;55778;54.346;10.210;2023-05-10T05:31:56;8.82;;;3.97;;
68792;SDS011;55778;54.346;10.210;2023-05-10T05:34:22;8.40;;;4.03;;
68792;SDS011;55778;54.346;10.210;2023-05-10T05:36:47;5.10;;;3.78;;
68792;SDS011;55778;54.346;10.210;2023-05-10T05:39:13;7.40;;;3.50;;
68792;SDS011;55778;54.346;10.210;2023-05-10T05:41:38;8.63;;;3.92;;
68792;SDS011;55778;54.346;10.210;2023-05-10T05:44:04;5.35;;;3.58;;
68792;SDS011;55778;54.346;10.210;2023-05-10T05:46:29;8.20;;;4.28;;
68792;SDS011;55778;54.346;10.210;2023-05-10T05:48:54;6.50;;;3.53;;
68792;SDS011;55778;54.346;10.210;2023-05-10T05:51:20;6.20;;;3.72;;
68792;SDS011;55778;54.346;10.210;2023-05-10T05:53:45;5.50;;;3.72;;
68792;SDS011;55778;54.346;10.210;2023-05-10T05:56:11;6.38;;;3.78;;
68792;SDS011;55778;54.346;10.210;2023-05-10T05:58:36;6.70;;;3.75;;
68792;SDS011;55778;54.346;10.210;2023-05-10T06:01:02;6.60;;;4.00;;
68792;SDS011;55778;54.346;10.210;2023-05-10T06:03:27;6.10;;;4.13;;
68792;SDS011;55778;54.346;10.210;2023-05-10T06:05:52;6.00;;;3.83;;
68792;SDS011;55778;54.346;10.210;2023-05-10T06:08:18;5.88;;;4.10;;
68792;SDS011;55778;54.346;10.210;2023-05-10T06:10:43;6.75;;;4.18;;
68792;SDS011;55778;54.346;10.210;2023-05-10T06:13:09;8.85;;;4.18;;
68792;SDS011;55778;54.346;10.210;2023-05-10T06:15:34;5.55;;;4.00;;
68792;SDS011;55778;54.346;10.210;2023-05-10T06:18:00;8.27;;;4.03;;
68792;SDS011;55778;54.346;10.210;2023-05-10T06:20:25;7.88;;;3.97;;
68792;SDS011;55778;54.346;10.210;2023-05-10T06:22:51;6.10;;;3.95;;
68792;SDS011;55778;54.346;10.210;2023-05-10T06:25:16;6.05;;;4.03;;
68792;SDS011;55778;54.346;10.210;2023-05-10T06:27:43;6.53;;;3.90;;
68792;SDS011;55778;54.346;10.210;2023-05-10T06:30:08;6.70;;;3.90;;
68792;SDS011;55778;54.346;10.210;2023-05-10T06:32:35;7.03;;;3.83;;
68792;SDS011;55778;54.346;10.210;2023-05-10T06:35:00;7.65;;;3.80;;
68792;SDS011;55778;54.346;10.210;2023-05-10T06:37:25;7.15;;;3.70;;
68792;SDS011;55778;54.346;10.210;2023-05-10T06:39:51;6.40;;;3.47;;
68792;SDS011;55778;54.346;10.210;2023-05-10T06:42:16;8.50;;;4.22;;
68792;SDS011;55778;54.346;10.210;2023-05-10T06:44:42;9.82;;;3.70;;
68792;SDS011;55778;54.346;10.210;2023-05-10T06:47:08;6.28;;;3.85;;
68792;SDS011;55778;54.346;10.210;2023-05-10T06:49:33;9.40;;;4.00;;
68792;SDS011;55778;54.346;10.210;2023-05-10T06:51:59;6.90;;;3.60;;
68792;SDS011;55778;54.346;10.210;2023-05-10T06:54:24;7.35;;;3.42;;
68792;SDS011;55778;54.346;10.210;2023-05-10T06:56:50;7.10;;;3.92;;
68792;SDS011;55778;54.346;10.210;2023-05-10T06:59:15;7.25;;;3.97;;
68792;SDS011;55778;54.346;10.210;2023-05-10T07:01:41;7.43;;;4.10;;
68792;SDS011;55778;54.346;10.210;2023-05-10T07:04:07;5.93;;;3.50;;
68792;SDS011;55778;54.346;10.210;2023-05-10T07:06:33;9.43;;;3.70;;
68792;SDS011;55778;54.346;10.210;2023-05-10T07:08:58;7.15;;;3.95;;
68792;SDS011;55778;54.346;10.210;2023-05-10T07:11:25;7.30;;;3.72;;
68792;SDS011;55778;54.346;10.210;2023-05-10T07:13:51;6.63;;;3.67;;
68792;SDS011;55778;54.346;10.210;2023-05-10T07:16:17;7.20;;;3.80;;
68792;SDS011;55778;54.346;10.210;2023-05-10T07:18:42;8.45;;;3.58;;
68792;SDS011;55778;54.346;10.210;2023-05-10T07:21:07;7.45;;;4.20;;
68792;SDS011;55778;54.346;10.210;2023-05-10T07:23:33;5.75;;;3.85;;
68792;SDS011;55778;54.346;10.210;2023-05-10T07:25:58;6.60;;;4.03;;
68792;SDS011;55778;54.346;10.210;2023-05-10T07:28:24;6.63;;;4.38;;
68792;SDS011;55778;54.346;10.210;2023-05-10T07:30:49;9.07;;;4.00;;
68792;SDS011;55778;54.346;10.210;2023-05-10T07:33:15;7.45;;;4.18;;
68792;SDS011;55778;54.346;10.210;2023-05-10T07:35:41;6.15;;;4.00;;
68792;SDS011;55778;54.346;10.210;2023-05-10T07:38:07;7.38;;;4.00;;
68792;SDS011;55778;54.346;10.210;2023-05-10T07:40:32;6.13;;;3.67;;
68792;SDS011;55778;54.346;10.210;2023-05-10T07:42:58;8.70;;;4.43;;
68792;SDS011;55778;54.346;10.210;2023-05-10T07:45:24;8.88;;;4.22;;
68792;SDS011;55778;54.346;10.210;2023-05-10T07:47:50;6.20;;;3.67;;
68792;SDS011;55778;54.346;10.210;2023-05-10T07:50:15;7.13;;;4.60;;
68792;SDS011;55778;54.346;10.210;2023-05-10T07:52:41;7.57;;;4.05;;
68792;SDS011;55778;54.346;10.210;2023-05-10T07:55:06;7.10;;;3.80;;
68792;SDS011;55778;54.346;10.210;2023-05-10T07:57:35;7.68;;;4.05;;
68792;SDS011;55778;54.346;10.210;2023-05-10T08:00:01;9.90;;;4.10;;
68792;SDS011;55778;54.346;10.210;2023-05-10T08:02:27;8.30;;;4.10;;
68792;SDS011;55778;54.346;10.210;2023-05-10T08:04:53;8.20;;;3.88;;
68792;SDS011;55778;54.346;10.210;2023-05-10T08:07:18;7.22;;;3.95;;
68792;SDS011;55778;54.346;10.210;2023-05-10T08:09:43;7.60;;;4.30;;
68792;SDS011;55778;54.346;10.210;2023-05-10T08:12:09;5.70;;;4.07;;
68792;SDS011;55778;54.346;10.210;2023-05-10T08:14:34;5.72;;;4.00;;
68792;SDS011;55778;54.346;10.210;2023-05-10T08:17:01;5.55;;;3.85;;
68792;SDS011;55778;54.346;10.210;2023-05-10T08:19:28;7.63;;;4.05;;
68792;SDS011;55778;54.346;10.210;2023-05-10T08:21:53;8.00;;;4.20;;
68792;SDS011;55778;54.346;10.210;2023-05-10T08:24:20;7.18;;;4.53;;
68792;SDS011;55778;54.346;10.210;2023-05-10T08:26:46;8.82;;;3.88;;
68792;SDS011;55778;54.346;10.210;2023-05-10T08:29:13;7.65;;;3.70;;
68792;SDS011;55778;54.346;10.210;2023-05-10T08:31:38;5.72;;;4.00;;
68792;SDS011;55778;54.346;10.210;2023-05-10T08:34:04;6.72;;;4.18;;
68792;SDS011;55778;54.346;10.210;2023-05-10T08:36:30;6.25;;;4.00;;
68792;SDS011;55778;54.346;10.210;2023-05-10T08:38:56;8.98;;;4.30;;
68792;SDS011;55778;54.346;10.210;2023-05-10T08:41:23;5.78;;;4.10;;
68792;SDS011;55778;54.346;10.210;2023-05-10T08:43:51;5.82;;;3.92;;
68792;SDS011;55778;54.346;10.210;2023-05-10T08:46:17;7.38;;;3.85;;
68792;SDS011;55778;54.346;10.210;2023-05-10T08:48:44;7.07;;;3.95;;
68792;SDS011;55778;54.346;10.210;2023-05-10T08:51:15;6.25;;;3.85;;
68792;SDS011;55778;54.346;10.210;2023-05-10T08:53:43;5.35;;;3.60;;
68792;SDS011;55778;54.346;10.210;2023-05-10T08:56:10;6.07;;;3.80;;
68792;SDS011;55778;54.346;10.210;2023-05-10T08:58:36;5.57;;;3.88;;
68792;SDS011;55778;54.346;10.210;2023-05-10T09:01:02;8.10;;;4.07;;
68792;SDS011;55778;54.346;10.210;2023-05-10T09:03:29;4.93;;;3.85;;
68792;SDS011;55778;54.346;10.210;2023-05-10T09:05:55;4.13;;;3.40;;
68792;SDS011;55778;54.346;10.210;2023-05-10T09:08:22;5.85;;;3.72;;
68792;SDS011;55778;54.346;10.210;2023-05-10T09:10:50;5.85;;;3.70;;
68792;SDS011;55778;54.346;10.210;2023-05-10T09:13:16;8.77;;;4.32;;
68792;SDS011;55778;54.346;10.210;2023-05-10T09:15:43;7.95;;;4.05;;
68792;SDS011;55778;54.346;10.210;2023-05-10T09:18:10;5.40;;;4.00;;
68792;SDS011;55778;54.346;10.210;2023-05-10T09:20:35;6.22;;;3.90;;
68792;SDS011;55778;54.346;10.210;2023-05-10T09:23:00;7.47;;;4.00;;
68792;SDS011;55778;54.346;10.210;2023-05-10T09:25:26;10.38;;;3.72;;
68792;SDS011;55778;54.346;10.210;2023-05-10T09:27:51;9.00;;;4.00;;
68792;SDS011;55778;54.346;10.210;2023-05-10T09:30:27;4.97;;;4.03;;
68792;SDS011;55778;54.346;10.210;2023-05-10T09:32:53;6.43;;;4.15;;
68792;SDS011;55778;54.346;10.210;2023-05-10T09:35:21;7.53;;;3.85;;
68792;SDS011;55778;54.346;10.210;2023-05-10T09:37:51;6.00;;;4.20;;
68792;SDS011;55778;54.346;10.210;2023-05-10T09:40:20;4.93;;;3.80;;
68792;SDS011;55778;54.346;10.210;2023-05-10T09:42:53;5.88;;;4.10;;
68792;SDS011;55778;54.346;10.210;2023-05-10T09:45:22;7.65;;;3.95;;
68792;SDS011;55778;54.346;10.210;2023-05-10T09:47:48;6.53;;;4.10;;
68792;SDS011;55778;54.346;10.210;2023-05-10T09:50:14;7.30;;;3.75;;
68792;SDS011;55778;54.346;10.210;2023-05-10T09:52:49;9.35;;;3.83;;
68792;SDS011;55778;54.346;10.210;2023-05-10T09:55:24;6.00;;;3.83;;
68792;SDS011;55778;54.346;10.210;2023-05-10T09:58:00;5.63;;;4.25;;
68792;SDS011;55778;54.346;10.210;2023-05-10T10:00:26;4.95;;;3.78;;
68792;SDS011;55778;54.346;10.210;2023-05-10T10:02:58;7.78;;;3.92;;
68792;SDS011;55778;54.346;10.210;2023-05-10T10:05:31;6.63;;;3.95;;
68792;SDS011;55778;54.346;10.210;2023-05-10T10:08:02;7.00;;;4.07;;
68792;SDS011;55778;54.346;10.210;2023-05-10T10:10:29;4.97;;;4.00;;
68792;SDS011;55778;54.346;10.210;2023-05-10T10:12:56;5.85;;;4.30;;
68792;SDS011;55778;54.346;10.210;2023-05-10T10:15:22;6.90;;;4.25;;
68792;SDS011;55778;54.346;10.210;2023-05-10T10:17:48;8.20;;;4.47;;
68792;SDS011;55778;54.346;10.210;2023-05-10T10:20:15;5.90;;;4.13;;
68792;SDS011;55778;54.346;10.210;2023-05-10T10:22:41;8.25;;;4.00;;
68792;SDS011;55778;54.346;10.210;2023-05-10T10:25:09;4.53;;;3.70;;
68792;SDS011;55778;54.346;10.210;2023-05-10T10:35:52;5.32;;;3.90;;
68792;SDS011;55778;54.346;10.210;2023-05-10T10:38:19;5.30;;;3.97;;
68792;SDS011;55778;54.346;10.210;2023-05-10T10:40:45;5.22;;;3.97;;
68792;SDS011;55778;54.346;10.210;2023-05-10T10:46:15;5.63;;;3.83;;
68792;SDS011;55778;54.346;10.210;2023-05-10T10:48:49;5.63;;;4.00;;
68792;SDS011;55778;54.346;10.210;2023-05-10T10:51:36;6.78;;;4.00;;
68792;SDS011;55778;54.346;10.210;2023-05-10T10:54:11;7.68;;;4.30;;
68792;SDS011;55778;54.346;10.210;2023-05-10T10:56:37;6.90;;;4.05;;
68792;SDS011;55778;54.346;10.210;2023-05-10T10:59:02;7.20;;;4.10;;
68792;SDS011;55778;54.346;10.210;2023-05-10T11:01:32;5.70;;;4.00;;
68792;SDS011;55778;54.346;10.210;2023-05-10T11:06:31;5.30;;;3.85;;
68792;SDS011;55778;54.346;10.210;2023-05-10T11:11:32;4.55;;;3.67;;
68792;SDS011;55778;54.346;10.210;2023-05-10T11:14:04;9.00;;;4.47;;
68792;SDS011;55778;54.346;10.210;2023-05-10T11:16:43;6.30;;;4.10;;
68792;SDS011;55778;54.346;10.210;2023-05-10T11:19:13;6.90;;;4.00;;
68792;SDS011;55778;54.346;10.210;2023-05-10T11:24:13;7.25;;;4.65;;
68792;SDS011;55778;54.346;10.210;2023-05-10T11:26:43;8.77;;;4.00;;
68792;SDS011;55778;54.346;10.210;2023-05-10T11:29:09;16.02;;;4.80;;
68792;SDS011;55778;54.346;10.210;2023-05-10T11:31:34;11.10;;;4.38;;
68792;SDS011;55778;54.346;10.210;2023-05-10T11:34:00;7.95;;;4.38;;
68792;SDS011;55778;54.346;10.210;2023-05-10T11:36:33;6.40;;;3.90;;
68792;SDS011;55778;54.346;10.210;2023-05-10T11:38:59;6.00;;;4.22;;
68792;SDS011;55778;54.346;10.210;2023-05-10T11:41:26;5.72;;;3.95;;
68792;SDS011;55778;54.346;10.210;2023-05-10T11:43:53;8.75;;;4.07;;
68792;SDS011;55778;54.346;10.210;2023-05-10T11:46:20;7.55;;;4.32;;
68792;SDS011;55778;54.346;10.210;2023-05-10T11:48:47;13.95;;;4.65;;
68792;SDS011;55778;54.346;10.210;2023-05-10T11:51:15;5.90;;;4.00;;
68792;SDS011;55778;54.346;10.210;2023-05-10T11:53:40;5.97;;;4.30;;
68792;SDS011;55778;54.346;10.210;2023-05-10T11:56:09;6.43;;;4.28;;
68792;SDS011;55778;54.346;10.210;2023-05-10T11:58:36;6.85;;;4.13;;
68792;SDS011;55778;54.346;10.210;2023-05-10T12:01:04;7.45;;;4.45;;
68792;SDS011;55778;54.346;10.210;2023-05-10T12:03:30;9.40;;;4.78;;
68792;SDS011;55778;54.346;10.210;2023-05-10T12:05:56;6.88;;;4.20;;
68792;SDS011;55778;54.346;10.210;2023-05-10T12:08:23;8.25;;;4.47;;
68792;SDS011;55778;54.346;10.210;2023-05-10T12:10:50;8.43;;;4.60;;
68792;SDS011;55778;54.346;10.210;2023-05-10T12:13:16;9.27;;;4.63;;
68792;SDS011;55778;54.346;10.210;2023-05-10T12:15:42;8.95;;;4.82;;
68792;SDS011;55778;54.346;10.210;2023-05-10T12:18:11;6.80;;;4.65;;
68792;SDS011;55778;54.346;10.210;2023-05-10T12:20:38;7.53;;;4.55;;
68792;SDS011;55778;54.346;10.210;2023-05-10T12:23:04;7.18;;;4.45;;
68792;SDS011;55778;54.346;10.210;2023-05-10T12:25:31;9.15;;;4.93;;
68792;SDS011;55778;54.346;10.210;2023-05-10T12:28:02;6.85;;;4.95;;
68792;SDS011;55778;54.346;10.210;2023-05-10T12:30:30;6.22;;;4.68;;
68792;SDS011;55778;54.346;10.210;2023-05-10T12:33:09;8.88;;;4.35;;
68792;SDS011;55778;54.346;10.210;2023-05-10T12:35:43;11.80;;;4.78;;
68792;SDS011;55778;54.346;10.210;2023-05-10T12:40:56;9.82;;;4.82;;
68792;SDS011;55778;54.346;10.210;2023-05-10T12:43:22;11.73;;;4.75;;
68792;SDS011;55778;54.346;10.210;2023-05-10T12:45:48;7.22;;;5.20;;
68792;SDS011;55778;54.346;10.210;2023-05-10T12:48:14;8.88;;;4.72;;
68792;SDS011;55778;54.346;10.210;2023-05-10T12:50:40;7.68;;;5.70;;
68792;SDS011;55778;54.346;10.210;2023-05-10T12:53:05;8.95;;;6.45;;
68792;SDS011;55778;54.346;10.210;2023-05-10T12:55:31;9.10;;;6.50;;
68792;SDS011;55778;54.346;10.210;2023-05-10T12:57:56;11.05;;;7.00;;
68792;SDS011;55778;54.346;10.210;2023-05-10T13:00:21;11.77;;;8.00;;
68792;SDS011;55778;54.346;10.210;2023-05-10T13:02:47;14.10;;;8.00;;
68792;SDS011;55778;54.346;10.210;2023-05-10T13:05:12;13.48;;;8.38;;
68792;SDS011;55778;54.346;10.210;2023-05-10T13:07:40;11.90;;;8.77;;
68792;SDS011;55778;54.346;10.210;2023-05-10T13:10:06;14.52;;;9.13;;
68792;SDS011;55778;54.346;10.210;2023-05-10T13:12:32;15.02;;;9.30;;
68792;SDS011;55778;54.346;10.210;2023-05-10T13:14:57;13.82;;;9.63;;
68792;SDS011;55778;54.346;10.210;2023-05-10T13:17:25;16.17;;;9.73;;
68792;SDS011;55778;54.346;10.210;2023-05-10T13:19:50;13.05;;;9.43;;
68792;SDS011;55778;54.346;10.210;2023-05-10T13:22:16;13.75;;;9.70;;
68792;SDS011;55778;54.346;10.210;2023-05-10T13:24:42;14.38;;;9.80;;
68792;SDS011;55778;54.346;10.210;2023-05-10T13:27:07;15.90;;;10.18;;
68792;SDS011;55778;54.346;10.210;2023-05-10T13:29:33;15.38;;;10.63;;
68792;SDS011;55778;54.346;10.210;2023-05-10T13:31:58;17.27;;;10.75;;
68792;SDS011;55778;54.346;10.210;2023-05-10T13:34:24;15.68;;;10.35;;
68792;SDS011;55778;54.346;10.210;2023-05-10T13:36:49;16.65;;;10.82;;
68792;SDS011;55778;54.346;10.210;2023-05-10T13:39:15;14.60;;;10.50;;
68792;SDS011;55778;54.346;10.210;2023-05-10T13:41:41;15.65;;;10.50;;
68792;SDS011;55778;54.346;10.210;2023-05-10T13:44:06;16.55;;;10.43;;
68792;SDS011;55778;54.346;10.210;2023-05-10T13:46:32;16.85;;;10.38;;
68792;SDS011;55778;54.346;10.210;2023-05-10T13:48:57;17.40;;;10.77;;
68792;SDS011;55778;54.346;10.210;2023-05-10T13:51:23;16.75;;;10.88;;
68792;SDS011;55778;54.346;10.210;2023-05-10T13:53:48;17.33;;;11.68;;
68792;SDS011;55778;54.346;10.210;2023-05-10T13:56:14;17.73;;;11.02;;
68792;SDS011;55778;54.346;10.210;2023-05-10T13:58:39;16.85;;;10.98;;
68792;SDS011;55778;54.346;10.210;2023-05-10T14:01:04;17.65;;;10.48;;
68792;SDS011;55778;54.346;10.210;2023-05-10T14:03:30;16.60;;;10.02;;
68792;SDS011;55778;54.346;10.210;2023-05-10T14:05:56;16.90;;;10.75;;
68792;SDS011;55778;54.346;10.210;2023-05-10T14:08:21;17.42;;;10.45;;
68792;SDS011;55778;54.346;10.210;2023-05-10T14:10:47;20.08;;;10.73;;
68792;SDS011;55778;54.346;10.210;2023-05-10T14:13:14;17.20;;;11.00;;
68792;SDS011;55778;54.346;10.210;2023-05-10T14:15:40;15.10;;;10.48;;
68792;SDS011;55778;54.346;10.210;2023-05-10T14:18:05;17.50;;;11.40;;
68792;SDS011;55778;54.346;10.210;2023-05-10T14:20:31;20.02;;;11.30;;
68792;SDS011;55778;54.346;10.210;2023-05-10T14:22:58;18.73;;;11.85;;
68792;SDS011;55778;54.346;10.210;2023-05-10T14:25:24;19.80;;;12.57;;
68792;SDS011;55778;54.346;10.210;2023-05-10T14:27:50;19.63;;;12.15;;
68792;SDS011;55778;54.346;10.210;2023-05-10T14:30:15;17.10;;;10.80;;
68792;SDS011;55778;54.346;10.210;2023-05-10T14:32:41;17.33;;;11.23;;
68792;SDS011;55778;54.346;10.210;2023-05-10T14:35:06;18.30;;;12.00;;
68792;SDS011;55778;54.346;10.210;2023-05-10T14:37:32;17.70;;;10.77;;
68792;SDS011;55778;54.346;10.210;2023-05-10T14:39:58;20.13;;;12.25;;
68792;SDS011;55778;54.346;10.210;2023-05-10T14:42:23;17.00;;;11.23;;
68792;SDS011;55778;54.346;10.210;2023-05-10T14:44:48;18.10;;;11.40;;
68792;SDS011;55778;54.346;10.210;2023-05-10T14:47:14;17.75;;;10.68;;
68792;SDS011;55778;54.346;10.210;2023-05-10T14:49:39;18.08;;;11.80;;
68792;SDS011;55778;54.346;10.210;2023-05-10T14:52:05;17.70;;;10.98;;
68792;SDS011;55778;54.346;10.210;2023-05-10T14:54:31;16.48;;;10.93;;
68792;SDS011;55778;54.346;10.210;2023-05-10T14:56:58;14.63;;;10.30;;
68792;SDS011;55778;54.346;10.210;2023-05-10T14:59:23;16.70;;;10.85;;
68792;SDS011;55778;54.346;10.210;2023-05-10T15:01:49;18.83;;;11.07;;
68792;SDS011;55778;54.346;10.210;2023-05-10T15:04:14;17.35;;;11.73;;
68792;SDS011;55778;54.346;10.210;2023-05-10T15:06:41;19.95;;;12.50;;
68792;SDS011;55778;54.346;10.210;2023-05-10T15:09:06;17.10;;;11.15;;